^^

Weather Underground History

Daily Summary for January 25, 2020 Units:  Metric    English   Both
Daily Weekly Monthly Yearly Custom
  Current: High: Low: Average:
Temperature: 4.9 °C 5.7 °C 4.8 °C 5.2 °C
Dew Point: 4.1 °C 4.8 °C 4 °C 4.5 °C
Humidity: 95% 97.2% 94% 95%
Wind Speed: 4.9km/h 7km/h 0km/h 4.2km/h
Wind Gust: 8km/h 12.9km/h - -
WindSW - - WSW
Pressure: 1016.5 hPa 1018.8 hPa 1016.5 hPa -
Precipitation: 0.2 mm      
Historical Graphs
 
 
Tabular Data for January 25, 2020
Time Temperature Dew Point Pressure Wind Wind Speed Wind Gust Humidity Rainfall Rate (Hourly) solar
00:04 5.7 °C 4.8 °C 1018.8 hPa West 2.1 km/h 4.8 km/h 94% 0.0 mm 0 W/m2
00:09 5.7 °C 4.8 °C 1018.8 hPa West 0.5 km/h 3.2 km/h 94% 0.0 mm 0 W/m2
00:14 5.6 °C 4.7 °C 1018.8 hPa West 3.4 km/h 6.4 km/h 94% 0.0 mm 0 W/m2
00:19 5.6 °C 4.7 °C 1018.7 hPa Calm   4.8 km/h 94% 0.0 mm 0 W/m2
00:24 5.6 °C 4.7 °C 1018.7 hPa West 0.2 km/h 3.2 km/h 94% 0.0 mm 0 W/m2
00:29 5.6 °C 4.7 °C 1018.6 hPa West 1.4 km/h 4.8 km/h 94% 0.0 mm 0 W/m2
00:34 5.6 °C 4.7 °C 1018.6 hPa West 2.3 km/h 6.4 km/h 94% 0.0 mm 0 W/m2
00:39 5.6 °C 4.7 °C 1018.5 hPa West 0.5 km/h 6.4 km/h 94% 0.0 mm 0 W/m2
00:44 5.6 °C 4.7 °C 1018.5 hPa West 0.9 km/h 3.2 km/h 94% 0.0 mm 0 W/m2
00:49 5.6 °C 4.7 °C 1018.4 hPa West 0.1 km/h 1.6 km/h 94% 0.0 mm 0 W/m2
00:54 5.5 °C 4.7 °C 1018.4 hPa West 2.6 km/h 4.8 km/h 94% 0.0 mm 0 W/m2
00:59 5.6 °C 4.7 °C 1018.4 hPa West 4.6 km/h 8 km/h 94% 0.0 mm 0 W/m2
01:04 5.6 °C 4.8 °C 1018.4 hPa West 3.8 km/h 8 km/h 94.7% 0.0 mm 0 W/m2
01:09 5.6 °C 4.8 °C 1018.3 hPa West 2.4 km/h 6.4 km/h 95% 0.0 mm 0 W/m2
01:14 5.6 °C 4.8 °C 1018.3 hPa West 1.7 km/h 4.8 km/h 95% 0.0 mm 0 W/m2
01:19 5.5 °C 4.8 °C 1018.2 hPa West 2.4 km/h 4.8 km/h 95% 0.0 mm 0 W/m2
01:24 5.5 °C 4.8 °C 1018.1 hPa West 2.6 km/h 4.8 km/h 95% 0.0 mm 0 W/m2
01:29 5.5 °C 4.8 °C 1018.1 hPa West 1.5 km/h 8 km/h 95% 0.0 mm 0 W/m2
01:34 5.5 °C 4.8 °C 1018.0 hPa West 3.2 km/h 8 km/h 95% 0.0 mm 0 W/m2
01:39 5.5 °C 4.8 °C 1018.0 hPa West 2.7 km/h 6.4 km/h 95% 0.0 mm 0 W/m2
01:44 5.5 °C 4.7 °C 1018.0 hPa West 3.6 km/h 8 km/h 95% 0.0 mm 0 W/m2
01:49 5.5 °C 4.7 °C 1017.9 hPa West 4.3 km/h 8 km/h 95% 0.0 mm 0 W/m2
01:54 5.4 °C 4.7 °C 1017.9 hPa West 4.8 km/h 8 km/h 95% 0.0 mm 0 W/m2
01:59 5.4 °C 4.7 °C 1017.8 hPa West 4.9 km/h 8 km/h 95% 0.0 mm 0 W/m2
02:04 5.4 °C 4.7 °C 1017.8 hPa West 5.3 km/h 11.3 km/h 95% 0.0 mm 0 W/m2
02:09 5.4 °C 4.7 °C 1017.8 hPa WSW 6.2 km/h 11.3 km/h 95% 0.0 mm 0 W/m2
02:14 5.4 °C 4.7 °C 1017.7 hPa SW 4.5 km/h 9.7 km/h 95% 0.0 mm 0 W/m2
02:19 5.4 °C 4.7 °C 1017.7 hPa WSW 4.3 km/h 8 km/h 95% 0.0 mm 0 W/m2
02:24 5.4 °C 4.7 °C 1017.7 hPa WSW 6.8 km/h 11.3 km/h 95% 0.0 mm 0 W/m2
02:29 5.4 °C 4.7 °C 1017.7 hPa WSW 6.5 km/h 9.7 km/h 95% 0.0 mm 0 W/m2
02:34 5.4 °C 4.7 °C 1017.7 hPa WSW 5.7 km/h 9.7 km/h 95% 0.0 mm 0 W/m2
02:39 5.4 °C 4.7 °C 1017.6 hPa WSW 5.1 km/h 8 km/h 95% 0.0 mm 0 W/m2
02:44 5.4 °C 4.7 °C 1017.6 hPa WSW 6.9 km/h 11.3 km/h 95% 0.0 mm 0 W/m2
02:49 5.4 °C 4.7 °C 1017.6 hPa WSW 6.8 km/h 9.7 km/h 95% 0.0 mm 0 W/m2
02:54 5.4 °C 4.7 °C 1017.5 hPa WSW 5.1 km/h 9.7 km/h 95% 0.0 mm 0 W/m2
02:59 5.4 °C 4.6 °C 1017.4 hPa WSW 5.3 km/h 8 km/h 95% 0.0 mm 0 W/m2
03:04 5.3 °C 4.6 °C 1017.4 hPa WSW 4 km/h 8 km/h 95% 0.0 mm 0 W/m2
03:09 5.3 °C 4.6 °C 1017.4 hPa WSW 4.5 km/h 8 km/h 95% 0.0 mm 0 W/m2
03:14 5.3 °C 4.6 °C 1017.3 hPa WSW 6.2 km/h 11.3 km/h 95% 0.0 mm 0 W/m2
03:19 5.3 °C 4.5 °C 1017.3 hPa WSW 6.8 km/h 11.3 km/h 95% 0.0 mm 0 W/m2
03:24 5.3 °C 4.5 °C 1017.3 hPa WSW 6 km/h 9.7 km/h 95% 0.0 mm 0 W/m2
03:29 5.2 °C 4.5 °C 1017.2 hPa WSW 6.7 km/h 11.3 km/h 95% 0.0 mm 0 W/m2
03:34 5.2 °C 4.4 °C 1017.2 hPa WSW 5.4 km/h 9.7 km/h 95% 0.0 mm 0 W/m2
03:39 5.1 °C 4.4 °C 1017.2 hPa WSW 5.5 km/h 11.3 km/h 95% 0.0 mm 0 W/m2
03:44 5.1 °C 4.4 °C 1017.1 hPa West 5.7 km/h 11.3 km/h 95% 0.0 mm 0 W/m2
03:49 5.1 °C 4.4 °C 1017.0 hPa West 4.5 km/h 8 km/h 95% 0.0 mm 0 W/m2
03:54 5.1 °C 4.3 °C 1017.0 hPa West 4.3 km/h 8 km/h 95% 0.0 mm 0 W/m2
03:59 5.1 °C 4.3 °C 1017.0 hPa West 4.9 km/h 8 km/h 95% 0.0 mm 0 W/m2
04:04 5.1 °C 4.3 °C 1017.0 hPa West 4.9 km/h 8 km/h 95% 0.0 mm 0 W/m2
04:09 5 °C 4.3 °C 1016.9 hPa West 5.4 km/h 8 km/h 95% 0.0 mm 0 W/m2
04:14 5 °C 4.6 °C 1016.9 hPa WSW 7 km/h 11.3 km/h 97.2% 0.0 mm 0 W/m2
04:19 5 °C 4.3 °C 1016.9 hPa SW 6.1 km/h 12.9 km/h 95.4% 0.0 mm 0 W/m2
04:24 4.9 °C 4.2 °C 1016.8 hPa WSW 5.7 km/h 12.9 km/h 95% 0.0 mm 0 W/m2
04:29 4.9 °C 4.2 °C 1016.7 hPa WSW 4.6 km/h 8 km/h 95% 0.0 mm 0 W/m2
04:34 4.8 °C 4.1 °C 1016.7 hPa WSW 5.3 km/h 9.7 km/h 95% 0.0 mm 0 W/m2
04:39 4.8 °C 4.1 °C 1016.6 hPa WSW 3.6 km/h 9.7 km/h 95% 0.0 mm 0 W/m2
04:44 4.8 °C 4.1 °C 1016.6 hPa WSW 4 km/h 9.7 km/h 95% 0.0 mm 0 W/m2
04:49 4.8 °C 4 °C 1016.6 hPa WSW 3 km/h 9.7 km/h 95% 0.0 mm 0 W/m2
04:54 4.8 °C 4 °C 1016.5 hPa WSW 3.3 km/h 8 km/h 95% 0.0 mm 0 W/m2
04:59 4.8 °C 4.1 °C 1016.5 hPa SW 5 km/h 9.7 km/h 95% 0.0 mm 0 W/m2
05:04 4.8 °C 4.1 °C 1016.5 hPa SW 4.8 km/h 9.7 km/h 95% 0.0 mm 0 W/m2
05:09 4.8 °C 4.1 °C 1016.5 hPa SW 3.8 km/h 8 km/h 95% 0.0 mm 0 W/m2
05:14 4.8 °C 4.1 °C 1016.6 hPa WSW 3.9 km/h 8 km/h 95% 0.0 mm 0 W/m2
05:19 4.8 °C 4.1 °C 1016.6 hPa SW 4.7 km/h 12.9 km/h 95% 0.0 mm 0 W/m2
05:24 4.8 °C 4.1 °C 1016.5 hPa WSW 4.5 km/h 12.9 km/h 95% 0.0 mm 0 W/m2
05:29 4.8 °C 4.1 °C 1016.5 hPa WSW 4.2 km/h 9.7 km/h 95% 0.0 mm 0 W/m2
05:34 4.8 °C 4.1 °C 1016.6 hPa WSW 3.4 km/h 8 km/h 95% 0.0 mm 0 W/m2
05:39 4.8 °C 4.1 °C 1016.5 hPa WSW 3.1 km/h 8 km/h 95% 0.0 mm 0 W/m2
05:44 4.8 °C 4.1 °C 1016.5 hPa WSW 3.5 km/h 8 km/h 95% 0.0 mm 0 W/m2
05:49 4.8 °C 4.1 °C 1016.5 hPa SW 5.1 km/h 11.3 km/h 95% 0.0 mm 0 W/m2
05:54 4.8 °C 4.1 °C 1016.5 hPa SW 5.5 km/h 9.7 km/h 95% 0.0 mm 0 W/m2
05:59 4.9 °C 4.1 °C 1016.5 hPa SW 4.9 km/h 8 km/h 95% 0.0 mm 0 W/m2
Compliments of Weather Underground - 2.75 mb